Time;durP1;ratioP1;P1;durP2;ratioP2;P2;SDS_P1;SDS_P2;PMS_P1;PMS_P2;Temp;Humidity;BMP_temperature;BMP_pressure;BME280_temperature;BME280_humidity;BME280_pressure;Samples;Min_cycle;Max_cycle;Signal;HPM_P1;HPM_P2
2023/02/10 00:02:24;;;;;;;21.20;12.82;;;0.00;99.90;;;;;;2602955;54;20600;31
2023/02/10 00:05:01;;;;;;;21.03;11.93;;;-0.10;99.90;;;;;;2602905;54;20027;31
2023/02/10 00:07:38;;;;;;;22.63;13.40;;;-0.10;99.90;;;;;;2603107;54;20037;31
2023/02/10 00:10:15;;;;;;;25.70;12.77;;;-0.10;99.90;;;;;;2602978;54;20046;31
2023/02/10 00:12:52;;;;;;;23.95;13.85;;;-0.10;99.90;;;;;;2603293;54;20894;31
2023/02/10 00:15:34;;;;;;;25.35;13.65;;;-0.20;99.90;;;;;;2603989;54;20030;31
2023/02/10 00:18:16;;;;;;;24.00;14.10;;;-0.20;99.90;;;;;;2603787;54;20728;31
2023/02/10 00:20:53;;;;;;;30.37;15.20;;;-0.30;99.90;;;;;;2603796;54;20026;31
2023/02/10 00:23:29;;;;;;;29.92;15.63;;;-0.20;99.90;;;;;;2603873;54;20031;31
2023/02/10 00:26:06;;;;;;;31.77;16.45;;;-0.30;99.90;;;;;;2603751;54;19942;31
2023/02/10 00:28:42;;;;;;;36.40;18.35;;;-0.30;99.90;;;;;;2622063;46;20112;31
2023/02/10 00:31:21;;;;;;;;;;;-0.40;99.90;;;;;;2603878;54;20102;31
2023/02/10 00:33:55;;;;;;;38.87;20.03;;;-0.30;99.90;;;;;;2603663;54;20747;31
2023/02/10 00:36:32;;;;;;;29.40;16.60;;;-0.40;99.90;;;;;;2603861;54;20775;31
2023/02/10 00:39:08;;;;;;;26.70;15.00;;;-0.50;99.90;;;;;;2622552;46;20048;31
2023/02/10 00:41:44;;;;;;;27.30;15.20;;;-0.50;99.90;;;;;;2603889;54;21220;31
2023/02/10 00:44:19;;;;;;;27.60;15.52;;;-0.50;99.90;;;;;;2603816;54;20610;31
2023/02/10 00:46:59;;;;;;;25.80;12.47;;;-0.50;99.90;;;;;;2621022;46;20023;31
2023/02/10 00:49:36;;;;;;;22.90;13.98;;;-0.60;99.90;;;;;;2603689;54;20991;31
2023/02/10 00:52:13;;;;;;;23.08;13.07;;;-0.60;99.90;;;;;;2622293;46;20037;31
2023/02/10 00:54:49;;;;;;;25.67;12.65;;;-0.60;99.90;;;;;;2622238;46;20588;31
2023/02/10 00:57:26;;;;;;;24.60;12.45;;;-0.60;99.90;;;;;;2622334;46;20889;31
2023/02/10 01:00:02;;;;;;;22.30;12.18;;;-0.60;99.90;;;;;;2603762;54;20034;31
2023/02/10 01:02:40;;;;;;;23.73;12.70;;;-0.80;99.90;;;;;;2622380;46;20030;31
2023/02/10 01:05:17;;;;;;;23.73;12.35;;;-0.80;99.90;;;;;;2603811;54;20360;31
2023/02/10 01:07:55;;;;;;;22.30;12.40;;;-0.80;99.90;;;;;;2603755;54;20741;31
2023/02/10 01:10:34;;;;;;;21.42;12.25;;;-0.90;99.90;;;;;;2603673;54;20912;31
2023/02/10 01:13:12;;;;;;;24.35;13.65;;;-0.90;99.90;;;;;;2603135;54;20881;31
2023/02/10 01:15:49;;;;;;;24.03;13.00;;;-0.90;99.90;;;;;;2603681;54;20920;31
2023/02/10 01:18:32;;;;;;;25.85;14.20;;;-0.90;99.90;;;;;;2603534;54;20273;31
2023/02/10 01:21:10;;;;;;;24.25;13.00;;;-1.00;99.90;;;;;;2603561;54;19949;31
2023/02/10 01:26:22;;;;;;;24.63;13.38;;;-1.00;99.90;;;;;;2603561;54;20801;31
2023/02/10 01:28:56;;;;;;;25.80;13.70;;;-1.10;99.90;;;;;;2603539;54;20088;31
2023/02/10 01:31:32;;;;;;;24.83;13.53;;;-1.10;99.90;;;;;;2603545;54;20238;31
2023/02/10 01:34:11;;;;;;;28.13;14.53;;;-1.10;99.90;;;;;;2603665;54;20902;31
2023/02/10 01:36:48;;;;;;;27.48;13.75;;;-1.10;99.90;;;;;;2603570;54;21121;31
2023/02/10 01:39:25;;;;;;;23.20;13.00;;;-1.10;99.90;;;;;;2603451;54;20839;31
2023/02/10 01:42:04;;;;;;;26.45;13.70;;;-1.10;99.90;;;;;;2603621;54;20859;31
2023/02/10 01:45:10;;;;;;;19.52;11.50;;;-1.20;99.90;;;;;;2621996;46;20104;31
2023/02/10 01:47:44;;;;;;;29.10;13.85;;;-1.20;99.90;;;;;;2603716;54;20766;31
2023/02/10 01:50:24;;;;;;;25.63;14.45;;;-1.20;99.90;;;;;;2603400;54;20875;31
2023/02/10 01:53:02;;;;;;;25.38;14.35;;;-1.20;99.90;;;;;;2603608;54;19941;31
2023/02/10 01:55:37;;;;;;;31.17;15.68;;;-1.30;99.90;;;;;;2603423;54;20045;31
2023/02/10 01:58:15;;;;;;;24.53;14.10;;;-1.30;99.90;;;;;;2603568;54;20034;31
2023/02/10 02:00:50;;;;;;;23.30;13.48;;;-1.30;99.90;;;;;;2603460;54;20320;31
2023/02/10 02:03:28;;;;;;;24.10;13.02;;;-1.30;99.90;;;;;;2622127;46;20026;31
2023/02/10 02:06:08;;;;;;;33.25;14.65;;;-1.30;99.90;;;;;;2603569;54;20065;31
2023/02/10 02:08:44;;;;;;;26.15;15.00;;;-1.40;99.90;;;;;;2621925;46;20026;31
2023/02/10 02:11:22;;;;;;;21.45;12.35;;;-1.40;99.90;;;;;;2603507;54;20844;31
2023/02/10 02:14:14;;;;;;;38.92;13.32;;;-1.40;99.90;;;;;;2602480;54;20095;31
2023/02/10 02:17:07;;;;;;;27.17;14.07;;;-1.50;99.90;;;;;;2603375;54;20929;31
2023/02/10 02:23:30;;;;;;;27.90;13.70;;;-1.50;99.90;;;;;;2603191;54;20092;31
2023/02/10 02:28:45;;;;;;;24.77;13.07;;;-1.50;99.90;;;;;;2621723;46;20022;31
2023/02/10 02:31:42;;;;;;;29.80;15.45;;;-1.50;99.90;;;;;;2603193;54;20132;31
2023/02/10 02:34:19;;;;;;;27.15;14.13;;;-1.60;99.90;;;;;;2603390;54;20033;31
2023/02/10 02:36:57;;;;;;;30.27;14.40;;;-1.60;99.90;;;;;;2603239;54;19961;31
2023/02/10 02:39:35;;;;;;;27.60;13.73;;;-1.60;99.90;;;;;;2603405;54;21103;31
2023/02/10 02:42:21;;;;;;;26.20;14.13;;;-1.60;99.90;;;;;;2602532;54;20102;31
2023/02/10 02:45:00;;;;;;;23.23;13.10;;;-1.60;99.90;;;;;;2603547;54;20030;31
2023/02/10 02:50:22;;;;;;;24.70;13.73;;;-1.70;99.90;;;;;;2603548;54;20058;31
2023/02/10 02:53:03;;;;;;;;;;;-1.70;99.90;;;;;;2702411;39;21100;31
2023/02/10 02:55:46;;;;;;;24.67;13.20;;;-1.80;99.90;;;;;;2603497;54;19934;31
2023/02/10 02:58:25;;;;;;;26.38;14.45;;;-1.80;99.90;;;;;;2603147;54;20026;31
2023/02/10 03:01:05;;;;;;;26.92;12.80;;;-1.80;99.90;;;;;;2603155;54;20027;31
2023/02/10 03:03:47;;;;;;;27.27;13.30;;;-1.80;99.90;;;;;;2603522;54;20026;31
2023/02/10 03:06:28;;;;;;;27.57;15.47;;;-1.80;99.90;;;;;;2602429;54;20078;31
2023/02/10 03:09:06;;;;;;;21.23;11.68;;;-1.80;99.90;;;;;;2603303;54;20031;31
2023/02/10 03:14:16;;;;;;;29.90;14.55;;;-1.90;99.90;;;;;;2621473;46;20022;31
2023/02/10 03:16:52;;;;;;;26.90;14.67;;;-1.90;99.90;;;;;;2603433;54;20775;31
2023/02/10 03:19:29;;;;;;;30.73;14.83;;;-2.00;99.90;;;;;;2603431;54;20034;31
2023/02/10 03:22:09;;;;;;;24.33;13.05;;;-2.00;99.90;;;;;;2621292;46;20313;31
2023/02/10 03:24:45;;;;;;;28.50;13.30;;;-2.00;99.90;;;;;;2603418;54;20764;31
2023/02/10 03:27:21;;;;;;;23.92;12.85;;;-2.00;99.90;;;;;;2603192;54;20030;31
2023/02/10 03:29:57;;;;;;;30.02;15.23;;;-2.00;99.90;;;;;;2602984;54;20749;31
2023/02/10 03:32:33;;;;;;;27.88;14.00;;;-1.90;99.90;;;;;;2603209;54;20173;31
2023/02/10 03:35:15;;;;;;;25.13;12.57;;;-2.00;99.90;;;;;;2603111;54;20578;31
2023/02/10 03:37:55;;;;;;;23.75;12.95;;;-2.00;99.90;;;;;;2602928;54;20234;31
2023/02/10 03:40:30;;;;;;;28.70;14.85;;;-2.00;99.90;;;;;;2603194;54;20026;31
2023/02/10 03:43:08;;;;;;;24.30;13.13;;;-2.00;99.90;;;;;;2603060;54;20033;31
2023/02/10 03:45:43;;;;;;;26.42;12.93;;;-2.00;99.90;;;;;;2603102;54;20046;31
2023/02/10 03:48:21;;;;;;;22.15;12.88;;;-2.10;99.90;;;;;;2603182;54;20031;31
2023/02/10 03:50:57;;;;;;;24.05;12.77;;;-2.10;99.90;;;;;;2603281;54;20026;31
2023/02/10 03:53:39;;;;;;;26.40;13.90;;;-2.00;99.90;;;;;;2603015;54;20045;31
2023/02/10 03:58:49;;;;;;;23.97;13.43;;;-2.10;99.90;;;;;;2621455;47;20031;31
2023/02/10 04:01:27;;;;;;;25.10;12.65;;;-2.00;99.90;;;;;;2603325;54;20580;31
2023/02/10 04:04:01;;;;;;;23.52;13.93;;;-2.10;99.90;;;;;;2603143;54;20142;31
2023/02/10 04:06:38;;;;;;;23.77;12.90;;;-2.10;99.90;;;;;;2603204;54;20772;31
2023/02/10 04:09:22;;;;;;;26.90;13.75;;;-2.00;99.90;;;;;;2603078;54;20939;31
2023/02/10 04:12:00;;;;;;;21.38;12.02;;;-2.00;99.90;;;;;;2603158;54;20026;31
2023/02/10 04:14:38;;;;;;;23.88;13.27;;;-1.90;99.90;;;;;;2602760;54;20841;31
2023/02/10 04:17:13;;;;;;;23.15;12.35;;;-1.80;99.90;;;;;;2621477;47;20030;31
2023/02/10 04:19:52;;;;;;;24.90;12.75;;;-1.80;99.90;;;;;;2602978;54;20057;31
2023/02/10 04:22:31;;;;;;;25.40;14.43;;;-1.80;99.90;;;;;;2602966;54;20037;31
2023/02/10 04:25:12;;;;;;;24.33;14.07;;;-1.80;99.90;;;;;;2621686;47;20026;31
2023/02/10 04:27:47;;;;;;;22.52;12.65;;;-1.90;99.90;;;;;;2602919;54;20745;31
2023/02/10 04:30:27;;;;;;;21.88;12.05;;;-1.90;99.90;;;;;;2602876;54;20035;31
2023/02/10 04:33:01;;;;;;;25.20;12.70;;;-1.90;99.90;;;;;;2621354;47;20026;31
2023/02/10 04:35:38;;;;;;;25.33;13.93;;;-1.90;99.90;;;;;;2701261;39;21714;31
2023/02/10 04:38:13;;;;;;;24.92;12.40;;;-2.00;99.90;;;;;;2701453;39;21656;31
2023/02/10 04:40:54;;;;;;;24.90;13.80;;;-2.00;99.90;;;;;;2602915;54;20046;31
2023/02/10 04:43:30;;;;;;;24.43;11.90;;;-2.00;99.90;;;;;;2620841;47;20876;31
2023/02/10 04:46:07;;;;;;;26.58;12.45;;;-2.10;99.90;;;;;;2602853;54;20250;31
2023/02/10 04:48:46;;;;;;;25.73;12.82;;;-2.10;99.90;;;;;;2602953;54;20050;31
2023/02/10 04:51:22;;;;;;;28.60;12.70;;;-2.10;99.90;;;;;;2602849;54;20033;31
2023/02/10 04:53:59;;;;;;;23.85;13.43;;;-2.20;99.90;;;;;;2621270;47;20026;31
2023/02/10 04:56:42;;;;;;;23.48;13.02;;;-2.20;99.90;;;;;;2621409;47;20033;31
2023/02/10 04:59:17;;;;;;;25.83;13.60;;;-2.10;99.90;;;;;;2602761;54;20756;31
2023/02/10 05:01:53;;;;;;;29.33;13.17;;;-2.20;99.90;;;;;;2603799;54;20049;31
2023/02/10 05:04:28;;;;;;;23.00;13.75;;;-2.20;99.90;;;;;;2603634;54;20961;31
2023/02/10 05:07:08;;;;;;;24.48;14.70;;;-2.20;99.90;;;;;;2602851;54;19935;31
2023/02/10 05:09:44;;;;;;;23.50;13.15;;;-2.30;99.90;;;;;;2603758;54;20027;31
2023/02/10 05:12:29;;;;;;;22.60;12.10;;;-2.20;99.90;;;;;;2603525;54;20910;31
2023/02/10 05:15:07;;;;;;;25.67;13.43;;;-2.20;99.90;;;;;;2603640;54;20050;31
2023/02/10 05:17:43;;;;;;;28.30;14.25;;;-2.20;99.90;;;;;;2603652;54;20072;31
2023/02/10 05:20:21;;;;;;;22.75;13.18;;;-2.10;99.90;;;;;;2603002;54;20977;31
2023/02/10 05:23:02;;;;;;;24.02;13.65;;;-2.10;99.90;;;;;;2602995;54;20034;31
2023/02/10 05:25:41;;;;;;;22.33;11.73;;;-2.00;99.90;;;;;;2603753;54;20037;31
2023/02/10 05:28:19;;;;;;;28.20;14.65;;;-2.00;99.90;;;;;;2603504;54;20037;31
2023/02/10 05:30:56;;;;;;;25.58;12.65;;;-1.90;99.90;;;;;;2603535;54;20046;31
2023/02/10 05:33:34;;;;;;;28.37;13.67;;;-1.90;99.90;;;;;;2603567;54;20068;31
2023/02/10 05:36:11;;;;;;;24.50;13.80;;;-1.80;99.90;;;;;;2603402;54;20239;31
2023/02/10 05:41:37;;;;;;;23.63;13.45;;;-1.80;99.90;;;;;;2603739;54;20887;31
2023/02/10 05:44:15;;;;;;;27.33;13.57;;;-1.70;99.90;;;;;;2701110;39;20509;31
2023/02/10 05:46:50;;;;;;;23.65;12.77;;;-1.70;99.90;;;;;;2603747;54;19945;31
2023/02/10 05:49:26;;;;;;;33.40;15.70;;;-1.60;99.90;;;;;;2702161;39;20491;31
2023/02/10 05:52:01;;;;;;;26.90;14.20;;;-1.60;99.90;;;;;;2622417;46;20033;31
2023/02/10 05:54:39;;;;;;;28.63;15.37;;;-1.60;99.90;;;;;;2603653;54;20936;31
2023/02/10 05:57:17;;;;;;;34.13;17.63;;;-1.50;99.90;;;;;;2622012;46;20026;31
2023/02/10 06:02:31;;;;;;;31.45;16.27;;;-1.50;99.90;;;;;;2603499;54;20031;31
2023/02/10 06:05:09;;;;;;;32.23;17.87;;;-1.40;99.90;;;;;;2603636;54;20022;31
2023/02/10 06:07:45;;;;;;;29.88;16.98;;;-1.40;99.90;;;;;;2603401;54;21043;31
2023/02/10 06:10:21;;;;;;;28.63;16.33;;;-1.40;99.90;;;;;;2603241;54;20027;31
2023/02/10 06:13:00;;;;;;;34.80;16.70;;;-1.40;99.90;;;;;;2702127;39;20517;31
2023/02/10 06:15:35;;;;;;;28.60;16.25;;;-1.30;99.90;;;;;;2603329;54;20031;31
2023/02/10 06:18:17;;;;;;;27.33;16.70;;;-1.30;99.90;;;;;;2603487;54;20033;31
2023/02/10 06:20:52;;;;;;;27.83;15.52;;;-1.20;99.90;;;;;;2603549;54;20026;31
2023/02/10 06:23:29;;;;;;;36.75;16.35;;;-1.20;99.90;;;;;;2603668;54;20840;31
2023/02/10 06:26:06;;;;;;;30.60;16.50;;;-1.20;99.90;;;;;;2701588;39;21640;31
2023/02/10 06:28:41;;;;;;;31.10;16.27;;;-1.20;99.90;;;;;;2603395;54;20841;31
2023/02/10 06:31:16;;;;;;;28.80;15.53;;;-1.10;99.90;;;;;;2603704;54;20087;31
2023/02/10 06:33:56;;;;;;;38.50;16.42;;;-1.10;99.90;;;;;;2603194;54;20026;31
2023/02/10 06:36:31;;;;;;;35.78;16.80;;;-1.00;99.90;;;;;;2603460;54;20037;31
2023/02/10 06:39:12;;;;;;;33.60;16.00;;;-1.00;99.90;;;;;;2622100;46;20105;31
2023/02/10 06:41:49;;;;;;;36.33;17.40;;;-0.90;99.90;;;;;;2603308;54;20038;31
2023/02/10 06:44:25;;;;;;;30.90;16.30;;;-1.00;99.90;;;;;;2603457;54;20105;31
2023/02/10 06:47:00;;;;;;;33.13;16.15;;;-0.90;99.90;;;;;;2720248;39;22663;31
2023/02/10 06:49:40;;;;;;;25.88;15.02;;;-0.90;99.90;;;;;;2621573;46;20389;31
2023/02/10 06:52:16;;;;;;;30.60;15.60;;;-0.90;99.90;;;;;;2621340;46;20049;31
2023/02/10 06:54:54;;;;;;;27.17;14.23;;;-0.90;99.90;;;;;;2602354;54;20054;31
2023/02/10 06:57:32;;;;;;;28.83;16.15;;;-0.80;99.90;;;;;;2603543;54;20049;31
2023/02/10 07:00:11;;;;;;;24.55;15.30;;;-0.80;99.90;;;;;;2603245;54;20911;31
2023/02/10 07:02:48;;;;;;;31.60;15.15;;;-0.70;99.90;;;;;;2603400;54;20787;31
2023/02/10 07:05:27;;;;;;;29.63;15.38;;;-0.80;99.90;;;;;;2603248;54;20081;31
2023/02/10 07:08:03;;;;;;;31.15;17.08;;;-0.70;99.90;;;;;;2603120;54;20030;31
2023/02/10 07:10:42;;;;;;;28.67;17.63;;;-0.70;99.90;;;;;;2621835;46;20030;31
2023/02/10 07:13:18;;;;;;;28.63;14.97;;;-0.60;99.90;;;;;;2603093;54;20038;31
2023/02/10 07:15:53;;;;;;;;;;;-0.60;99.90;;;;;;2603526;54;20049;31
2023/02/10 07:18:32;;;;;;;26.35;14.15;;;-0.60;99.90;;;;;;2603120;54;20686;31
2023/02/10 07:21:18;;;;;;;28.85;15.35;;;-0.50;99.90;;;;;;2621515;46;20085;31
2023/02/10 07:23:56;;;;;;;30.50;15.25;;;-0.50;99.90;;;;;;2603199;54;20873;31
2023/02/10 07:26:31;;;;;;;26.50;14.43;;;-0.50;99.90;;;;;;2614191;46;20925;31
2023/02/10 07:29:08;;;;;;;29.40;16.27;;;-0.40;99.90;;;;;;2603125;54;20037;31
2023/02/10 07:31:46;;;;;;;27.95;16.02;;;-0.40;99.90;;;;;;2602405;54;20313;31
2023/02/10 07:34:22;;;;;;;36.03;19.30;;;-0.40;99.90;;;;;;2603336;54;20904;31
2023/02/10 07:37:01;;;;;;;24.93;14.30;;;-0.30;99.90;;;;;;2602995;54;21103;31
2023/02/10 07:39:38;;;;;;;26.50;15.15;;;-0.30;99.90;;;;;;2603225;54;20104;31
2023/02/10 07:42:14;;;;;;;25.13;13.63;;;-0.20;99.90;;;;;;2603301;54;20030;31
2023/02/10 07:45:20;;;;;;;30.17;15.57;;;-0.20;99.90;;;;;;2603011;54;20867;31
2023/02/10 07:47:56;;;;;;;28.65;15.55;;;-0.10;99.90;;;;;;2603259;54;20818;31
2023/02/10 07:50:34;;;;;;;31.00;16.70;;;-0.10;99.90;;;;;;2613791;46;20871;31
2023/02/10 07:53:12;;;;;;;30.02;16.83;;;0.00;99.90;;;;;;2603047;54;20052;31
2023/02/10 07:55:49;;;;;;;29.27;16.92;;;0.00;99.90;;;;;;2603005;54;20037;31
2023/02/10 07:58:29;;;;;;;30.83;17.83;;;0.10;99.90;;;;;;2603228;54;20037;31
2023/02/10 08:01:08;;;;;;;34.67;17.40;;;0.10;99.90;;;;;;2621710;47;20038;31
2023/02/10 08:03:49;;;;;;;34.20;18.10;;;0.20;99.90;;;;;;2603228;54;20028;31
2023/02/10 08:06:27;;;;;;;40.70;20.00;;;0.30;99.90;;;;;;2603158;54;20046;31
2023/02/10 08:09:08;;;;;;;36.08;19.83;;;0.30;99.90;;;;;;2603151;54;20038;31
2023/02/10 08:11:44;;;;;;;37.55;20.70;;;0.40;99.90;;;;;;2603211;54;20867;31
2023/02/10 08:14:22;;;;;;;37.00;20.00;;;0.40;99.90;;;;;;2603056;54;20800;31
2023/02/10 08:17:02;;;;;;;42.40;21.42;;;0.50;99.90;;;;;;2621239;47;20027;31
2023/02/10 08:19:38;;;;;;;43.97;25.03;;;0.60;99.90;;;;;;2603174;54;20033;31
2023/02/10 08:22:15;;;;;;;44.80;24.95;;;0.70;99.90;;;;;;2602958;54;21110;31
2023/02/10 08:24:54;;;;;;;37.45;20.02;;;0.70;99.90;;;;;;2603011;54;20095;31
2023/02/10 08:27:30;;;;;;;40.47;21.17;;;0.80;99.90;;;;;;2602935;54;20033;31
2023/02/10 08:30:08;;;;;;;39.92;20.15;;;0.90;99.90;;;;;;2603117;54;20900;31
2023/02/10 08:32:43;;;;;;;34.58;20.90;;;1.00;99.90;;;;;;2603053;54;20049;31
2023/02/10 08:35:23;;;;;;;50.80;21.45;;;1.00;99.90;;;;;;2622112;46;20022;31
2023/02/10 08:37:59;;;;;;;156.70;32.60;;;1.10;99.90;;;;;;2603748;54;20038;31
2023/02/10 08:40:41;;;;;;;46.05;22.70;;;1.10;99.90;;;;;;2603861;54;20850;31
2023/02/10 08:43:16;;;;;;;45.90;20.77;;;1.20;99.90;;;;;;2603822;54;20577;31
2023/02/10 08:45:52;;;;;;;43.65;20.70;;;1.20;99.90;;;;;;2603841;54;20045;31
2023/02/10 08:48:27;;;;;;;;;;;1.30;99.90;;;;;;2603932;54;20093;31
2023/02/10 08:51:08;;;;;;;36.10;19.00;;;1.40;99.90;;;;;;2603139;54;20780;31
2023/02/10 08:53:45;;;;;;;41.45;20.60;;;1.40;99.90;;;;;;2602972;54;20116;31
2023/02/10 08:56:27;;;;;;;41.95;21.05;;;1.40;99.90;;;;;;2603620;54;20842;31
2023/02/10 08:59:03;;;;;;;43.30;20.20;;;1.50;99.90;;;;;;2602941;54;20030;31
2023/02/10 09:01:41;;;;;;;38.13;18.42;;;1.50;99.90;;;;;;2603664;54;20023;31
2023/02/10 09:04:17;;;;;;;37.58;19.80;;;1.60;99.90;;;;;;2603635;54;20030;31
2023/02/10 09:06:54;;;;;;;38.67;20.27;;;1.60;99.90;;;;;;2603778;54;20046;31
2023/02/10 09:09:28;;;;;;;37.00;20.00;;;1.70;99.90;;;;;;2603803;54;20828;31
2023/02/10 09:12:11;;;;;;;42.58;21.75;;;1.70;99.90;;;;;;2603642;54;20796;31
2023/02/10 09:14:47;;;;;;;41.47;23.60;;;1.80;99.90;;;;;;2603637;54;20061;31
2023/02/10 09:17:23;;;;;;;37.13;20.15;;;1.90;99.90;;;;;;2603561;54;20026;31
2023/02/10 09:19:59;;;;;;;44.75;21.73;;;2.00;99.90;;;;;;2602737;54;20031;31
2023/02/10 09:22:35;;;;;;;39.90;21.33;;;2.10;99.90;;;;;;2622145;46;20027;31
2023/02/10 09:25:09;;;;;;;;;;;2.20;99.90;;;;;;2604081;54;20037;31
2023/02/10 09:27:49;;;;;;;32.97;18.67;;;2.30;99.90;;;;;;2603763;54;19954;31
2023/02/10 09:30:27;;;;;;;36.85;18.33;;;2.40;99.90;;;;;;2603504;54;20046;31
2023/02/10 09:33:04;;;;;;;38.25;21.10;;;2.50;99.90;;;;;;2603501;54;20888;31
2023/02/10 09:35:40;;;;;;;38.38;20.58;;;2.50;99.90;;;;;;2702157;39;21405;31
2023/02/10 09:38:17;;;;;;;37.63;19.30;;;2.70;99.90;;;;;;2602660;54;20900;31
2023/02/10 09:40:55;;;;;;;34.67;19.83;;;2.70;99.90;;;;;;2614537;46;20245;31
2023/02/10 09:43:48;;;;;;;33.30;18.55;;;2.80;99.90;;;;;;2602737;54;20042;31
2023/02/10 09:46:31;;;;;;;31.40;18.00;;;2.90;99.90;;;;;;2603578;54;20038;31
2023/02/10 09:49:15;;;;;;;32.85;18.88;;;3.00;99.90;;;;;;2603514;54;20881;31
2023/02/10 09:51:55;;;;;;;36.93;19.63;;;3.10;99.90;;;;;;2621599;46;20867;31
2023/02/10 09:54:33;;;;;;;30.90;17.98;;;3.20;99.90;;;;;;2621893;46;20250;31
2023/02/10 09:57:14;;;;;;;37.53;18.85;;;3.30;99.90;;;;;;2603426;54;20873;31
2023/02/10 09:59:54;;;;;;;38.35;19.05;;;3.40;99.90;;;;;;2603384;54;20823;31
2023/02/10 10:02:34;;;;;;;35.63;19.15;;;3.40;99.90;;;;;;2602793;54;20046;31
2023/02/10 10:05:17;;;;;;;44.47;19.65;;;3.50;99.90;;;;;;2603757;54;20026;31
2023/02/10 10:07:53;;;;;;;34.63;18.30;;;3.50;99.90;;;;;;2603066;54;20026;31
2023/02/10 10:10:32;;;;;;;34.40;18.15;;;3.50;99.90;;;;;;2701578;39;20585;31
2023/02/10 10:13:07;;;;;;;35.40;18.55;;;3.50;99.90;;;;;;2603443;54;20034;31
2023/02/10 10:15:48;;;;;;;35.75;17.90;;;3.40;99.90;;;;;;2602831;54;20891;31
2023/02/10 10:18:25;;;;;;;36.33;18.67;;;3.50;99.90;;;;;;2603285;54;21182;31
2023/02/10 10:21:02;;;;;;;33.40;19.15;;;3.40;99.90;;;;;;2602960;54;20126;31
2023/02/10 10:23:43;;;;;;;32.63;19.93;;;3.50;99.90;;;;;;2621588;46;20960;31
2023/02/10 10:26:33;;;;;;;36.60;19.67;;;3.50;99.90;;;;;;2603408;54;20086;31
2023/02/10 10:29:21;;;;;;;36.42;19.77;;;3.40;99.90;;;;;;2603241;54;20104;31
2023/02/10 10:32:07;;;;;;;43.75;20.85;;;3.50;99.90;;;;;;2603256;54;20167;31
2023/02/10 10:34:48;;;;;;;36.53;19.98;;;3.50;99.90;;;;;;2603432;54;20849;31
2023/02/10 10:37:26;;;;;;;36.63;18.80;;;3.50;99.90;;;;;;2603528;54;20037;31
2023/02/10 10:40:04;;;;;;;37.53;20.27;;;3.60;99.90;;;;;;2602633;54;20890;31
2023/02/10 10:42:46;;;;;;;33.20;18.80;;;3.70;99.90;;;;;;2602696;54;20028;31
2023/02/10 10:45:24;;;;;;;31.60;17.90;;;3.70;99.90;;;;;;2603281;54;20911;31
2023/02/10 10:48:04;;;;;;;33.10;19.27;;;3.70;99.90;;;;;;2611241;46;20059;31
2023/02/10 10:50:42;;;;;;;28.80;18.23;;;3.80;99.90;;;;;;2602208;54;20030;31
2023/02/10 10:53:23;;;;;;;30.05;17.30;;;3.80;99.90;;;;;;2602499;54;20247;31
2023/02/10 10:56:01;;;;;;;38.22;17.88;;;3.80;99.90;;;;;;2617654;46;20038;31
2023/02/10 10:58:46;;;;;;;40.60;18.90;;;3.70;99.90;;;;;;2620955;46;20038;31
2023/02/10 11:01:33;;;;;;;39.67;19.00;;;3.80;99.90;;;;;;2603355;54;20946;31
2023/02/10 11:04:16;;;;;;;33.42;17.88;;;3.80;99.90;;;;;;2602622;54;20762;31
2023/02/10 11:06:52;;;;;;;34.25;19.33;;;3.80;99.90;;;;;;2700828;39;21679;31
2023/02/10 11:09:30;;;;;;;35.42;18.33;;;3.80;99.90;;;;;;2603303;54;20027;31
2023/02/10 11:12:05;;;;;;;33.63;18.85;;;3.80;99.90;;;;;;2603274;54;20149;31
2023/02/10 11:14:44;;;;;;;27.50;16.57;;;3.90;99.90;;;;;;2603008;54;20038;31
2023/02/10 11:20:00;;;;;;;34.38;17.60;;;3.90;99.90;;;;;;2603268;54;20041;31
2023/02/10 11:22:37;;;;;;;33.80;17.53;;;3.90;99.90;;;;;;2603169;54;20140;31
2023/02/10 11:25:27;;;;;;;40.08;17.85;;;3.90;99.90;;;;;;2603476;54;20061;31
2023/02/10 11:28:05;;;;;;;31.50;18.45;;;4.00;99.90;;;;;;2603402;54;20027;31
2023/02/10 11:30:44;;;;;;;36.08;19.45;;;4.10;99.90;;;;;;2603374;54;20081;31
2023/02/10 11:33:19;;;;;;;35.70;18.37;;;4.10;99.90;;;;;;2603140;54;20046;31
2023/02/10 11:36:01;;;;;;;34.63;17.88;;;4.10;99.90;;;;;;2603119;54;20033;31
2023/02/10 11:38:39;;;;;;;35.55;18.20;;;4.20;99.90;;;;;;2701505;39;21533;31
2023/02/10 11:41:15;;;;;;;32.30;18.30;;;4.20;99.90;;;;;;2619545;46;20868;31
2023/02/10 11:43:52;;;;;;;36.60;18.50;;;4.30;99.90;;;;;;2603249;54;20043;31
2023/02/10 11:46:30;;;;;;;33.08;17.88;;;4.40;99.90;;;;;;2602922;54;20683;31
2023/02/10 11:49:06;;;;;;;36.00;17.20;;;4.40;99.90;;;;;;2612088;46;20034;31
2023/02/10 11:51:55;;;;;;;33.00;17.95;;;4.40;99.90;;;;;;2621412;46;20126;31
2023/02/10 11:54:31;;;;;;;32.20;16.90;;;4.40;99.90;;;;;;2603034;54;20092;31
2023/02/10 12:00:23;;;;;;;34.33;16.88;;;4.50;99.90;;;;;;2602927;54;20049;31
2023/02/10 12:03:29;;;;;;;36.13;18.17;;;4.50;99.90;;;;;;2602977;54;20049;31
2023/02/10 12:06:08;;;;;;;37.80;18.70;;;4.50;99.90;;;;;;2602789;54;20898;31
2023/02/10 12:08:53;;;;;;;32.40;18.73;;;4.50;99.90;;;;;;2603323;54;20056;31
2023/02/10 12:11:31;;;;;;;35.38;19.30;;;4.50;99.90;;;;;;2603817;54;20049;31
2023/02/10 12:14:20;;;;;;;37.75;18.88;;;4.50;99.90;;;;;;2603780;54;20931;31
2023/02/10 12:16:59;;;;;;;39.83;20.48;;;4.50;99.90;;;;;;2603959;54;20037;31
2023/02/10 12:19:38;;;;;;;36.53;19.42;;;4.60;99.90;;;;;;2603879;54;20096;31
2023/02/10 12:22:19;;;;;;;30.42;17.23;;;4.60;99.90;;;;;;2603685;54;20944;31
2023/02/10 12:25:10;;;;;;;36.73;17.63;;;4.60;99.90;;;;;;2603793;54;20026;31
2023/02/10 12:27:50;;;;;;;35.85;17.65;;;4.60;99.90;;;;;;2622201;46;20105;31
2023/02/10 12:30:33;;;;;;;32.57;17.03;;;4.60;99.90;;;;;;2603979;54;20026;31
2023/02/10 12:33:20;;;;;;;33.90;17.75;;;4.50;99.90;;;;;;2603611;54;20033;31
2023/02/10 12:35:58;;;;;;;31.83;18.95;;;4.50;99.90;;;;;;2603893;54;20949;31
2023/02/10 12:38:45;;;;;;;33.40;17.80;;;4.50;99.90;;;;;;2603048;54;20054;31
2023/02/10 12:41:27;;;;;;;29.35;17.60;;;4.50;99.90;;;;;;2603731;54;20030;31
2023/02/10 12:44:15;;;;;;;37.30;20.02;;;4.50;99.90;;;;;;2603621;54;20018;31
2023/02/10 12:46:55;;;;;;;36.10;18.40;;;4.50;99.90;;;;;;2603685;54;20569;31
2023/02/10 12:49:43;;;;;;;34.47;14.68;;;4.50;99.90;;;;;;2622211;46;20113;31
2023/02/10 12:52:21;;;;;;;34.75;17.20;;;4.70;99.90;;;;;;2603713;54;20030;31
2023/02/10 12:54:58;;;;;;;31.35;16.85;;;4.90;99.90;;;;;;2622533;46;20053;31
2023/02/10 12:57:47;;;;;;;36.73;17.53;;;4.90;99.90;;;;;;2607634;46;20026;31
2023/02/10 13:00:24;;;;;;;36.00;18.05;;;4.80;99.90;;;;;;2715702;39;20018;31
2023/02/10 13:03:03;;;;;;;33.80;16.40;;;4.90;99.90;;;;;;2603426;54;20820;31
2023/02/10 13:05:42;;;;;;;27.83;17.15;;;4.80;99.90;;;;;;2603687;54;20112;31
2023/02/10 13:08:20;;;;;;;36.67;17.67;;;4.80;99.90;;;;;;2603770;54;20078;31
2023/02/10 13:10:57;;;;;;;32.22;17.45;;;4.80;99.90;;;;;;2603511;54;20242;31
2023/02/10 13:13:37;;;;;;;33.07;17.20;;;4.70;99.90;;;;;;2603531;54;20042;31
2023/02/10 13:16:15;;;;;;;32.90;17.52;;;4.70;99.90;;;;;;2603795;54;20990;31
2023/02/10 13:18:55;;;;;;;35.30;17.85;;;4.80;99.90;;;;;;2603491;54;20925;31
2023/02/10 13:21:32;;;;;;;54.63;18.13;;;4.80;99.90;;;;;;2603494;54;20027;31
2023/02/10 13:24:11;;;;;;;29.65;16.30;;;4.70;99.90;;;;;;2603367;54;19934;31
2023/02/10 13:26:55;;;;;;;35.20;18.38;;;4.80;99.90;;;;;;2603464;54;20862;31
2023/02/10 13:29:38;;;;;;;34.10;16.95;;;4.80;99.90;;;;;;2603452;54;20104;31
2023/02/10 13:32:35;;;;;;;30.10;17.58;;;4.80;99.90;;;;;;2603246;54;20041;31
2023/02/10 13:35:10;;;;;;;32.85;16.45;;;4.70;99.90;;;;;;2622082;46;20034;31
2023/02/10 13:37:46;;;;;;;33.27;17.27;;;4.70;99.90;;;;;;2603455;54;20037;31
2023/02/10 13:40:31;;;;;;;31.15;16.65;;;4.70;99.90;;;;;;2603445;54;20026;31
2023/02/10 13:43:44;;;;;;;33.85;17.10;;;4.70;99.90;;;;;;2603391;54;20030;31
2023/02/10 13:49:20;;;;;;;35.97;16.95;;;4.50;99.90;;;;;;2603432;54;20910;31
2023/02/10 13:52:06;;;;;;;36.47;16.92;;;4.50;99.90;;;;;;2603425;54;20944;31
2023/02/10 13:54:55;;;;;;;35.90;16.33;;;4.50;99.90;;;;;;2603650;54;20049;31
2023/02/10 13:57:34;;;;;;;35.80;16.23;;;4.50;99.90;;;;;;2603368;54;20305;31
2023/02/10 14:02:48;;;;;;;30.55;15.93;;;4.50;99.90;;;;;;2603628;54;20068;31
2023/02/10 14:05:36;;;;;;;32.10;15.70;;;4.40;99.90;;;;;;2603083;54;20796;31
2023/02/10 14:11:37;;;;;;;30.43;16.23;;;4.50;99.90;;;;;;2603470;54;20952;31
2023/02/10 14:14:36;;;;;;;30.13;15.93;;;4.40;99.90;;;;;;2603519;54;20940;31
2023/02/10 14:23:28;;;;;;;34.83;16.30;;;4.40;99.90;;;;;;2602357;54;20030;31
2023/02/10 14:26:12;;;;;;;30.53;15.20;;;4.40;99.90;;;;;;2602741;54;20893;31
2023/02/10 14:29:02;;;;;;;30.27;16.08;;;4.40;99.90;;;;;;2602736;54;20102;31